Rockdale, Massachusetts
Current Conditions -  °F | °C
As of 3:02 PM on Monday 26 Jan 2015 (Local Time) from KORH Reporting Station
Overcast Overcast  
Wind Chill:   Ceiling: 1400
Heat Index: 17°   Visibility: 10mi
Dew Point: 11°   Wind: 14mph
Humidity: 77%   Direction: 40°NE
Pressure: 29.96"   Gusts: 23mph
Location:  42.1404°N, 71.6391°W
Report Text: KORH 262002Z 04012G20KT 10SM OVC014 M08/M12 A2996 RMK AO2 T10831117
Loading
Personal Weather Stations






























Interactive Weather Map New forecast layout! Learn more

10-Day Weather Forecast

Advertisements
Track Severe Weather on mobile